Time Latitude Longitude Accuracy (66% radius in meters) Altitude (meters) Speed (km/hour) Bearing (degrees) Battery (%) GPS flag
09:58:48 59.740506 30.387838 6 61.749979696965 1.2495880126953 356.38632202148 100 1 delete
09:58:46 59.740478 30.387835 6 61.786177051976 1.3126112222672 3.6111047267914 100 1 delete
09:58:41 59.740381 30.387807 8 62.562236420474 1.2890375852585 5.9472756385803 100 1 delete
09:58:38 59.740351 30.387796 8 62.979424475697 1.2117502689362 345.85400390625 100 1 delete
09:58:35 59.740283 30.387819 8 63.353582935707 1.2164282798767 329.39630126953 100 1 delete
09:58:28 59.740239 30.387864 12 63.601046725055 0 9.2821998596191 100 1 delete
10:58:19 59.740176 30.387784 12 64.511050807954 0 78.30347442627 100 0 delete
10:58:07 59.740176 30.387784 12 64.511050807954 0 78.30347442627 100 0 delete
09:57:52 59.740190 30.387844 24 64.301615119136 0 46.560546875 100 1 delete
09:57:38 59.740176 30.387784 12 64.511050807954 0 78.30347442627 100 1 delete
09:57:33 59.740131 30.387630 8 64.73300522116 0 330.89654541016 100 1 delete
09:57:31 59.740110 30.387649 12 64.763604902956 1.2394881248474 323.955078125 100 1 delete
09:57:22 59.740019 30.387638 12 64.061782352023 0.91541254520416 301.20477294922 100 1 delete
09:57:20 59.740007 30.387665 12 63.524994782451 0.85592365264893 300.22091674805 100 1 delete
09:57:10 59.739951 30.387755 16 61.242194299811 1.3026067018509 2.7596950531006 100 1 delete
09:57:08 59.739901 30.387761 12 60.920099534888 0 350.23379516602 100 1 delete
09:56:56 59.739832 30.387765 32 60.790090177593 0 338.75009155273 100 1 delete
09:56:44 59.739844 30.387733 24 60.141082788957 0 338.75009155273 100 1 delete
09:56:34 59.739857 30.387696 24 59.995560006719 0 338.75009155273 100 1 delete
09:56:22 59.739866 30.387619 16 59.528650302285 0 338.75009155273 100 1 delete
09:56:09 59.739826 30.387659 16 59.879135910708 0 2.7288291454315 100 1 delete
09:55:57 59.739769 30.387690 12 59.566935459457 0 182.72317504883 100 1 delete
09:55:45 59.739825 30.387716 16 59.086540924267 0 102.15453338623 100 1 delete
09:55:33 59.739825 30.387716 12 59.382454825647 0 102.15453338623 100 1 delete
09:55:21 59.739828 30.387711 16 60.14627657226 0 102.15453338623 100 1 delete
09:55:09 59.739853 30.387710 12 60.512382316735 0 175.6424407959 100 1 delete
09:54:57 59.739864 30.387660 6 60.726652829055 0 35.148746490479 100 1 delete
09:54:45 59.739848 30.387587 6 60.791167991536 0 35.148746490479 100 1 delete
09:54:33 59.739840 30.387607 12 60.95115114764 0 35.148746490479 100 1 delete
09:54:22 59.739843 30.387604 12 61.390306305414 0 35.148746490479 100 1 delete
09:54:09 59.739843 30.387604 16 61.387934474627 0 35.148746490479 100 1 delete
09:53:57 59.739843 30.387604 8 61.455842568444 0 35.148746490479 100 1 delete
09:53:45 59.739843 30.387604 8 61.409105084124 0 35.148746490479 100 1 delete
09:53:33 59.739843 30.387604 12 61.308732496777 0 35.148746490479 100 1 delete
09:53:21 59.739843 30.387604 12 61.232747101448 0 35.148746490479 100 1 delete
09:53:09 59.739843 30.387604 16 61.253021921522 0 35.148746490479 100 1 delete
09:52:57 59.739843 30.387604 12 61.141943543134 0 35.148746490479 100 1 delete
09:52:44 59.739849 30.387622 12 61.489745771918 0 35.148746490479 100 1 delete
09:52:31 59.739849 30.387622 16 61.613286447285 0 35.148746490479 100 1 delete
09:52:19 59.739849 30.387622 16 61.605752691394 0 35.148746490479 100 1 delete
09:52:07 59.739849 30.387622 16 61.618077757342 0 35.148746490479 100 1 delete
09:51:44 59.739844 30.387618 12 62.318125925068 0 335.91891479492 100 1 delete
09:50:56 59.739836 30.387652 12 65.043983571107 0 262.16592407227 100 1 delete
09:50:54 59.739845 30.387737 16 65.276867915459 0 281.43423461914 100 1 delete
09:50:39 59.739821 30.387936 24 66.246959990982 0 165.47793579102 100 1 delete
09:50:35 59.739840 30.387913 32 66.257746547542 0 165.47793579102 100 1 delete
09:50:22 59.739901 30.387842 32 66.206058847967 1.1548539400101 187.39959716797 100 1 delete
09:50:12 59.739989 30.387926 24 65.393329195096 1.3871413469315 187.21510314941 100 1 delete
09:50:08 59.740092 30.387930 16 64.681363143174 1.3065341711044 185.27987670898 100 1 delete
09:50:03 59.740187 30.387983 12 63.025580949539 0 193.23699951172 100 1 delete